Time,TemperatureF,DewpointF,PressureIn,WindDirection,WindDirectionDegrees,WindSpeedMPH,WindSpeedGustMPH,Humidity,HourlyPrecipIn,Conditions,Clouds,dailyrainin,SoftwareType,DateUTC
2013-07-25 00:02:00,53.0,50.0,29.97,NW,326,5.0,9.0,88,0.00,,,0.00,,2013-07-25 04:02:00,
2013-07-25 00:12:00,53.0,50.0,29.97,NW,326,5.0,9.0,88,0.00,,,0.00,,2013-07-25 04:12:00,
2013-07-25 00:43:00,52.0,49.0,29.97,North,4,6.0,10.0,90,0.00,,,0.00,,2013-07-25 04:43:00,
2013-07-25 00:53:00,52.0,49.0,29.98,NNW,343,4.0,9.0,90,0.00,,,0.00,,2013-07-25 04:53:00,
2013-07-25 01:02:00,52.0,49.0,29.98,NNW,343,4.0,9.0,90,0.00,,,0.00,,2013-07-25 05:02:00,
2013-07-25 01:12:00,51.0,48.0,29.98,NNE,17,4.0,8.0,91,0.00,,,0.00,,2013-07-25 05:12:00,
2013-07-25 01:43:00,51.0,48.0,29.99,NNE,16,2.0,5.0,91,0.00,,,0.00,,2013-07-25 05:43:00,
2013-07-25 01:52:00,51.0,48.0,29.99,NNW,342,5.0,7.0,91,0.00,,,0.00,,2013-07-25 05:52:00,
2013-07-25 02:12:00,50.0,48.0,29.98,North,349,4.0,8.0,92,0.00,,,0.00,,2013-07-25 06:12:00,
2013-07-25 02:22:00,50.0,48.0,29.98,NNW,345,5.0,8.0,93,0.00,,,0.00,,2013-07-25 06:22:00,
2013-07-25 02:32:00,50.0,48.0,29.98,NNW,345,5.0,8.0,93,0.00,,,0.00,,2013-07-25 06:32:00,
2013-07-25 02:42:00,50.0,48.0,29.99,NNE,20,2.0,4.0,93,0.00,,,0.00,,2013-07-25 06:42:00,
2013-07-25 02:52:00,49.0,47.0,29.98,NNE,15,3.0,5.0,94,0.00,,,0.00,,2013-07-25 06:52:00,
2013-07-25 03:02:00,49.0,47.0,29.98,NW,316,3.0,7.0,94,0.00,,,0.00,,2013-07-25 07:02:00,
2013-07-25 03:12:00,49.0,47.0,29.98,NW,316,3.0,7.0,94,0.00,,,0.00,,2013-07-25 07:12:00,
2013-07-25 03:22:00,49.0,48.0,29.98,NNW,344,3.0,7.0,95,0.00,,,0.00,,2013-07-25 07:22:00,
2013-07-25 03:43:00,49.0,48.0,29.98,NNW,329,4.0,7.0,95,0.00,,,0.00,,2013-07-25 07:43:00,
2013-07-25 03:53:00,48.0,47.0,29.97,North,355,5.0,6.0,96,0.00,,,0.00,,2013-07-25 07:53:00,
2013-07-25 04:02:00,48.0,47.0,29.97,NNW,344,3.0,6.0,96,0.00,,,0.00,,2013-07-25 08:02:00,
2013-07-25 04:12:00,48.0,47.0,29.97,NNW,344,3.0,6.0,96,0.00,,,0.00,,2013-07-25 08:12:00,
2013-07-25 04:44:00,47.0,46.0,29.98,NNW,330,3.0,6.0,97,0.00,,,0.00,,2013-07-25 08:44:00,
2013-07-25 04:52:00,47.0,46.0,29.98,WNW,302,3.0,6.0,97,0.00,,,0.00,,2013-07-25 08:52:00,
2013-07-25 05:02:00,47.0,46.0,29.98,NW,321,1.0,4.0,97,0.00,,,0.00,,2013-07-25 09:02:00,
2013-07-25 05:12:00,47.0,46.0,29.98,NW,321,1.0,4.0,97,0.00,,,0.00,,2013-07-25 09:12:00,
2013-07-25 05:22:00,48.0,47.0,29.99,NNW,335,2.0,4.0,95,0.00,,,0.00,,2013-07-25 09:22:00,
2013-07-25 05:33:00,48.0,47.0,29.99,NNW,335,2.0,4.0,95,0.00,,,0.00,,2013-07-25 09:33:00,
2013-07-25 05:43:00,47.0,46.0,29.99,North,351,3.0,4.0,95,0.00,,,0.00,,2013-07-25 09:43:00,
2013-07-25 05:53:00,47.0,46.0,30.00,NNW,339,3.0,4.0,96,0.00,,,0.00,,2013-07-25 09:53:00,
2013-07-25 06:03:00,46.0,45.0,30.00,NNE,14,3.0,6.0,97,0.00,,,0.00,,2013-07-25 10:03:00,
2013-07-25 06:12:00,46.0,45.0,30.00,NNE,14,3.0,6.0,97,0.00,,,0.00,,2013-07-25 10:12:00,
2013-07-25 06:42:00,46.0,45.0,30.01,NW,324,2.0,5.0,98,0.00,,,0.00,,2013-07-25 10:42:00,
2013-07-25 06:53:00,46.0,45.0,30.01,North,356,4.0,7.0,98,0.00,,,0.00,,2013-07-25 10:53:00,
2013-07-25 07:02:00,46.0,45.0,30.01,North,356,4.0,7.0,98,0.00,,,0.00,,2013-07-25 11:02:00,
2013-07-25 07:12:00,46.0,45.0,30.01,North,8,2.0,4.0,98,0.00,,,0.00,,2013-07-25 11:12:00,
2013-07-25 07:22:00,47.0,46.0,30.01,North,2,3.0,6.0,98,0.00,,,0.00,,2013-07-25 11:22:00,
2013-07-25 07:43:00,47.0,46.0,30.01,North,356,3.0,5.0,97,0.00,,,0.00,,2013-07-25 11:43:00,
2013-07-25 07:52:00,48.0,47.0,30.02,NNW,333,0.0,6.0,96,0.00,,,0.00,,2013-07-25 11:52:00,
2013-07-25 08:03:00,48.0,47.0,30.02,NNW,333,0.0,6.0,96,0.00,,,0.00,,2013-07-25 12:03:00,
2013-07-25 08:12:00,49.0,47.0,30.03,NW,321,0.0,5.0,93,0.00,,,0.00,,2013-07-25 12:12:00,
2013-07-25 08:23:00,50.0,47.0,30.04,NNE,32,1.0,5.0,91,0.00,,,0.00,,2013-07-25 12:23:00,
2013-07-25 08:32:00,50.0,47.0,30.04,NNE,32,1.0,5.0,91,0.00,,,0.00,,2013-07-25 12:32:00,
2013-07-25 08:45:00,48.0,46.0,30.04,North,4,5.0,8.0,94,0.00,,,0.00,,2013-07-25 12:45:00,
2013-07-25 08:53:00,48.0,47.0,30.04,North,352,5.0,11.0,95,0.00,,,0.00,,2013-07-25 12:53:00,
2013-07-25 09:03:00,48.0,47.0,30.04,North,352,5.0,11.0,95,0.00,,,0.00,,2013-07-25 13:03:00,
2013-07-25 09:12:00,49.0,48.0,30.04,NNW,344,5.0,11.0,95,0.00,,,0.00,,2013-07-25 13:12:00,
2013-07-25 09:33:00,50.0,48.0,30.04,NNW,338,5.0,10.0,92,0.00,,,0.00,,2013-07-25 13:33:00,
2013-07-25 09:43:00,51.0,48.0,30.04,NE,34,6.0,11.0,90,0.00,,,0.00,,2013-07-25 13:43:00,
2013-07-25 09:53:00,53.0,50.0,30.04,NNE,26,3.0,10.0,88,0.00,,,0.00,,2013-07-25 13:53:00,
2013-07-25 10:02:00,53.0,50.0,30.04,NNE,26,3.0,10.0,88,0.00,,,0.00,,2013-07-25 14:02:00,
2013-07-25 10:12:00,54.0,49.0,30.05,NNW,338,2.0,8.0,84,0.00,,,0.00,,2013-07-25 14:12:00,
2013-07-25 10:33:00,55.0,49.0,30.05,NNE,14,0.0,10.0,81,0.00,,,0.00,,2013-07-25 14:33:00,
2013-07-25 10:43:00,55.0,49.0,30.05,North,352,2.0,10.0,79,0.00,,,0.00,,2013-07-25 14:43:00,
2013-07-25 10:53:00,56.0,49.0,30.05,NNE,20,6.0,12.0,77,0.00,,,0.00,,2013-07-25 14:53:00,
2013-07-25 11:02:00,57.0,50.0,30.05,NNE,18,3.0,9.0,76,0.00,,,0.00,,2013-07-25 15:02:00,
2013-07-25 11:12:00,57.0,50.0,30.05,NNE,18,3.0,9.0,76,0.00,,,0.00,,2013-07-25 15:12:00,
2013-07-25 12:02:00,60.0,50.0,30.06,NNW,341,3.0,10.0,70,0.00,,,0.00,,2013-07-25 16:02:00,
2013-07-25 12:12:00,61.0,49.0,30.06,NNW,340,3.0,12.0,65,0.00,,,0.00,,2013-07-25 16:12:00,
2013-07-25 12:33:00,62.0,49.0,30.06,NNE,22,7.0,13.0,62,0.00,,,0.00,,2013-07-25 16:33:00,
2013-07-25 12:45:00,63.0,49.0,30.06,WNW,300,2.0,9.0,61,0.00,,,0.00,,2013-07-25 16:45:00,
2013-07-25 12:53:00,64.0,50.0,30.06,ENE,58,3.0,9.0,60,0.00,,,0.00,,2013-07-25 16:53:00,
2013-07-25 13:03:00,64.0,50.0,30.06,ENE,58,3.0,9.0,60,0.00,,,0.00,,2013-07-25 17:03:00,
2013-07-25 13:12:00,64.0,49.0,30.06,NW,318,1.0,13.0,59,0.00,,,0.00,,2013-07-25 17:12:00,
2013-07-25 13:32:00,66.0,50.0,30.06,NNW,328,2.0,7.0,57,0.00,,,0.00,,2013-07-25 17:32:00,
2013-07-25 13:43:00,67.0,50.0,30.05,NE,43,4.0,10.0,55,0.00,,,0.00,,2013-07-25 17:43:00,
2013-07-25 13:53:00,67.0,52.0,30.05,NE,39,1.0,8.0,58,0.00,,,0.00,,2013-07-25 17:53:00,
2013-07-25 14:02:00,67.0,52.0,30.05,NE,39,1.0,8.0,58,0.00,,,0.00,,2013-07-25 18:02:00,
2013-07-25 14:12:00,67.0,50.0,30.05,NW,322,6.0,13.0,54,0.00,,,0.00,,2013-07-25 18:12:00,
2013-07-25 14:22:00,68.0,52.0,30.04,NNW,338,1.0,9.0,56,0.00,,,0.00,,2013-07-25 18:22:00,
2013-07-25 14:33:00,69.0,50.0,30.04,NNE,20,5.0,10.0,50,0.00,,,0.00,,2013-07-25 18:33:00,
2013-07-25 14:43:00,69.0,50.0,30.04,NNE,20,5.0,10.0,50,0.00,,,0.00,,2013-07-25 18:43:00,
2013-07-25 14:52:00,69.0,51.0,30.04,NNE,30,2.0,11.0,53,0.00,,,0.00,,2013-07-25 18:52:00,
2013-07-25 15:12:00,68.0,51.0,30.04,NNW,330,1.0,13.0,54,0.00,,,0.00,,2013-07-25 19:12:00,
2013-07-25 15:33:00,69.0,52.0,30.04,NNW,342,3.0,11.0,54,0.00,,,0.00,,2013-07-25 19:33:00,
2013-07-25 15:43:00,70.0,50.0,30.04,North,8,4.0,11.0,50,0.00,,,0.00,,2013-07-25 19:43:00,
2013-07-25 15:53:00,72.0,51.0,30.03,NNW,336,3.0,9.0,48,0.00,,,0.00,,2013-07-25 19:53:00,
2013-07-25 16:03:00,70.0,51.0,30.03,East,94,1.0,8.0,51,0.00,,,0.00,,2013-07-25 20:03:00,
2013-07-25 16:12:00,70.0,51.0,30.03,East,94,1.0,8.0,51,0.00,,,0.00,,2013-07-25 20:12:00,
2013-07-25 16:22:00,72.0,52.0,30.03,NNE,28,5.0,13.0,49,0.00,,,0.00,,2013-07-25 20:22:00,
2013-07-25 16:32:00,72.0,52.0,30.03,NNE,28,5.0,13.0,49,0.00,,,0.00,,2013-07-25 20:32:00,
2013-07-25 16:43:00,70.0,50.0,30.03,NNW,334,5.0,11.0,49,0.00,,,0.00,,2013-07-25 20:43:00,
2013-07-25 16:54:00,70.0,51.0,30.03,WNW,293,1.0,11.0,51,0.00,,,0.00,,2013-07-25 20:54:00,
2013-07-25 17:03:00,71.0,52.0,30.03,NNE,29,2.0,6.0,52,0.00,,,0.00,,2013-07-25 21:03:00,
2013-07-25 17:12:00,71.0,52.0,30.03,NNE,29,2.0,6.0,52,0.00,,,0.00,,2013-07-25 21:12:00,
2013-07-25 17:33:00,71.0,54.0,30.02,NNW,330,2.0,7.0,55,0.00,,,0.00,,2013-07-25 21:33:00,
2013-07-25 17:44:00,71.0,52.0,30.02,NNE,21,7.0,12.0,52,0.00,,,0.00,,2013-07-25 21:44:00,
2013-07-25 17:52:00,70.0,52.0,30.02,NNE,17,3.0,13.0,53,0.00,,,0.00,,2013-07-25 21:52:00,
2013-07-25 18:12:00,70.0,53.0,30.02,NW,316,2.0,9.0,54,0.00,,,0.00,,2013-07-25 22:12:00,
2013-07-25 18:22:00,70.0,53.0,30.02,NW,316,2.0,9.0,54,0.00,,,0.00,,2013-07-25 22:22:00,
2013-07-25 18:32:00,70.0,52.0,30.03,NNW,338,4.0,12.0,52,0.00,,,0.00,,2013-07-25 22:32:00,
2013-07-25 18:43:00,70.0,52.0,30.03,NNW,338,4.0,12.0,52,0.00,,,0.00,,2013-07-25 22:43:00,
2013-07-25 18:53:00,69.0,52.0,30.03,North,354,4.0,12.0,54,0.00,,,0.00,,2013-07-25 22:53:00,
2013-07-25 19:12:00,69.0,52.0,30.04,North,2,3.0,8.0,55,0.00,,,0.00,,2013-07-25 23:12:00,
2013-07-25 19:22:00,68.0,52.0,30.05,NNW,347,5.0,10.0,56,0.00,,,0.00,,2013-07-25 23:22:00,
2013-07-25 19:32:00,68.0,53.0,30.05,NW,318,3.0,9.0,58,0.00,,,0.00,,2013-07-25 23:32:00,
2013-07-25 19:43:00,68.0,53.0,30.05,NW,318,3.0,9.0,58,0.00,,,0.00,,2013-07-25 23:43:00,
2013-07-25 19:52:00,67.0,51.0,30.05,NNW,333,4.0,11.0,57,0.00,,,0.00,,2013-07-25 23:52:00,
2013-07-25 20:02:00,67.0,53.0,30.05,North,355,5.0,9.0,60,0.00,,,0.00,,2013-07-26 00:02:00,
2013-07-25 20:33:00,65.0,52.0,30.05,NNE,18,5.0,8.0,63,0.00,,,0.00,,2013-07-26 00:33:00,
2013-07-25 20:43:00,65.0,52.0,30.05,NNE,18,5.0,8.0,63,0.00,,,0.00,,2013-07-26 00:43:00,
2013-07-25 20:52:00,64.0,52.0,30.05,NNW,345,4.0,8.0,66,0.00,,,0.00,,2013-07-26 00:52:00,
2013-07-25 21:02:00,63.0,53.0,30.05,NNW,334,4.0,6.0,69,0.00,,,0.00,,2013-07-26 01:02:00,
2013-07-25 21:12:00,63.0,53.0,30.05,NNW,334,4.0,6.0,69,0.00,,,0.00,,2013-07-26 01:12:00,
2013-07-25 21:43:00,62.0,52.0,30.05,NNW,338,5.0,7.0,70,0.00,,,0.00,,2013-07-26 01:43:00,
2013-07-25 21:52:00,60.0,52.0,30.06,NNW,347,5.0,8.0,74,0.00,,,0.00,,2013-07-26 01:52:00,
2013-07-25 22:02:00,60.0,52.0,30.06,NNW,341,6.0,9.0,76,0.00,,,0.00,,2013-07-26 02:02:00,
2013-07-25 22:12:00,60.0,52.0,30.06,NNW,341,6.0,9.0,76,0.00,,,0.00,,2013-07-26 02:12:00,
2013-07-25 22:32:00,60.0,52.0,30.06,NNW,345,4.0,8.0,75,0.00,,,0.00,,2013-07-26 02:32:00,
2013-07-25 22:43:00,59.0,52.0,30.06,NNW,338,4.0,7.0,79,0.00,,,0.00,,2013-07-26 02:43:00,
2013-07-25 22:52:00,58.0,53.0,30.07,North,359,5.0,8.0,82,0.00,,,0.00,,2013-07-26 02:52:00,
2013-07-25 23:02:00,58.0,53.0,30.07,North,359,5.0,8.0,82,0.00,,,0.00,,2013-07-26 03:02:00,
2013-07-25 23:12:00,58.0,52.0,30.07,North,349,7.0,9.0,80,0.00,,,0.00,,2013-07-26 03:12:00,
2013-07-25 23:44:00,57.0,52.0,30.07,North,352,5.0,7.0,83,0.00,,,0.00,,2013-07-26 03:44:00,
2013-07-25 23:53:00,57.0,52.0,30.08,NNW,343,3.0,6.0,82,0.00,,,0.00,,2013-07-26 03:53:00,